Bentley, MI (48613)

8:41 AM EDT on March 25, 2017 (GMT -0400)
Pinconning farm country, (Pintucky Hawg Farm) | | Change Station

Elev 623 ft 43.82 °N, 84.03 °W | Updated 29 seconds ago

Overcast
Overcast
34.9 °F
Feels Like 26 °F
N
14.0
Wind Variable Wind from North

Today
High -- | Low -- °F
--% Chance of Precip.
Yesterday
High -- | Low -- °F
Precip. -- in
Pressure 30.24 in
Visibility 10.0 miles
Clouds Overcast 800 ft
Windchill 26 °F
Dew Point 34 °F
Humidity 98%
Rainfall 0.05 in
Snow Depth Not available.
7:30 AM 7:55 PM
Waning Crescent, 8% visible
METAR KIKW 251233Z AUTO 06010G17KT 10SM -DZ OVC008 03/01 A3024 RMK AO2 T00250008
Pressure 30.24 in
Visibility 10.0 miles
Clouds Overcast 800 ft
Windchill 26 °F
Dew Point 34 °F
Humidity 98%
Rainfall 0.05 in
Snow Depth Not available.
7:30 AM 7:55 PM
Waning Crescent, 8% visible
METAR KIKW 251233Z AUTO 06010G17KT 10SM -DZ OVC008 03/01 A3024 RMK AO2 T00250008

Get Severe Weather Alerts

Thanks for signing up!

Be on the lookout for a verification email in your inbox.

You'll start receiving the daily forecast at 8 AM.

×

10-Day Weather Forecast

Almanac

Astronomy

Mar. 25, 2017 Rise Set
Actual Time
Civil Twilight
Nautical Twilight
Astronomical Twilight
Moon
Length of Visible Light
Length of Day
Tomorrow will be .
, % of the Moon is Illuminated

Today's Extremes

State Highs State Lows

Community

WunderPhotos

Upload Photos

1,962,540 photos uploaded!

WunderBlog® & News

Nearby

Air Quality

  Air Quality AQ Index Pollutant
Not available.

Snow Depth

Station Depth Elevation

Earthquake Activity

City Distance Mag. Time & Date
Minimum magnitude displayed is 2.5.

Earthquake Activity

City Distance Mag. Time & Date
Minimum magnitude displayed is 2.5.

Coastal Water Temperatures

Place Temperature

Stations

Nearby Weather Stations

Station Location Temp. Windchill Dew Point Humidity Wind Precip. Elev Updated Type
                   

Watches & Warnings

There are currently no watches in effect.